sensor_id;sensor_type;location;lat;lon;timestamp;pressure;altitude;pressure_sealevel;temperature;humidity
8637;BME280;4356;49.068;8.658;2023-04-26T00:00:21;100023.38;;;18.66;39.85
8637;BME280;4356;49.068;8.658;2023-04-26T00:02:47;100013.53;;;18.65;39.88
8637;BME280;4356;49.068;8.658;2023-04-26T00:05:14;100023.78;;;18.63;39.84
8637;BME280;4356;49.068;8.658;2023-04-26T00:07:41;100028.44;;;18.62;39.87
8637;BME280;4356;49.068;8.658;2023-04-26T00:10:07;100024.63;;;18.63;40.02
8637;BME280;4356;49.068;8.658;2023-04-26T00:12:33;100025.72;;;18.62;40.01
8637;BME280;4356;49.068;8.658;2023-04-26T00:15:00;100022.38;;;18.60;39.76
8637;BME280;4356;49.068;8.658;2023-04-26T00:17:26;100022.59;;;18.59;40.08
8637;BME280;4356;49.068;8.658;2023-04-26T00:19:51;100019.03;;;18.58;40.21
8637;BME280;4356;49.068;8.658;2023-04-26T00:22:17;100029.06;;;18.58;40.28
8637;BME280;4356;49.068;8.658;2023-04-26T00:24:43;100029.53;;;18.55;40.08
8637;BME280;4356;49.068;8.658;2023-04-26T00:27:09;100025.09;;;18.54;39.94
8637;BME280;4356;49.068;8.658;2023-04-26T00:29:38;100034.13;;;18.54;40.11
8637;BME280;4356;49.068;8.658;2023-04-26T00:32:03;100016.78;;;18.48;39.95
8637;BME280;4356;49.068;8.658;2023-04-26T00:34:33;100027.84;;;18.54;39.93
8637;BME280;4356;49.068;8.658;2023-04-26T00:36:59;100024.50;;;18.52;39.96
8637;BME280;4356;49.068;8.658;2023-04-26T00:39:25;100017.84;;;18.48;39.94
8637;BME280;4356;49.068;8.658;2023-04-26T00:41:51;100000.69;;;18.40;40.09
8637;BME280;4356;49.068;8.658;2023-04-26T00:44:17;100021.19;;;18.50;39.80
8637;BME280;4356;49.068;8.658;2023-04-26T00:46:43;100018.66;;;18.48;40.07
8637;BME280;4356;49.068;8.658;2023-04-26T00:49:13;100011.16;;;18.43;40.01
8637;BME280;4356;49.068;8.658;2023-04-26T00:51:40;100027.66;;;18.48;39.95
8637;BME280;4356;49.068;8.658;2023-04-26T00:54:07;100016.38;;;18.45;39.88
8637;BME280;4356;49.068;8.658;2023-04-26T00:56:33;100023.69;;;18.44;40.12
8637;BME280;4356;49.068;8.658;2023-04-26T00:59:01;100025.38;;;18.45;39.73
8637;BME280;4356;49.068;8.658;2023-04-26T01:01:27;100021.22;;;18.43;40.03
8637;BME280;4356;49.068;8.658;2023-04-26T01:03:53;100020.78;;;18.39;40.29
8637;BME280;4356;49.068;8.658;2023-04-26T01:06:19;100025.81;;;18.42;39.96
8637;BME280;4356;49.068;8.658;2023-04-26T01:08:45;100018.06;;;18.39;40.11
8637;BME280;4356;49.068;8.658;2023-04-26T01:11:11;100021.00;;;18.38;40.09
8637;BME280;4356;49.068;8.658;2023-04-26T01:13:37;100015.16;;;18.34;39.99
8637;BME280;4356;49.068;8.658;2023-04-26T01:16:03;100023.50;;;18.39;40.24
8637;BME280;4356;49.068;8.658;2023-04-26T01:18:30;100019.13;;;18.38;40.21
8637;BME280;4356;49.068;8.658;2023-04-26T01:20:56;100022.88;;;18.37;39.85
8637;BME280;4356;49.068;8.658;2023-04-26T01:23:21;100025.44;;;18.32;39.75
8637;BME280;4356;49.068;8.658;2023-04-26T01:25:47;100020.81;;;18.33;39.94
8637;BME280;4356;49.068;8.658;2023-04-26T01:28:13;100024.34;;;18.33;39.96
8637;BME280;4356;49.068;8.658;2023-04-26T01:30:39;100024.59;;;18.32;40.33
8637;BME280;4356;49.068;8.658;2023-04-26T01:33:04;100006.81;;;18.29;40.15
8637;BME280;4356;49.068;8.658;2023-04-26T01:35:30;100011.19;;;18.30;40.03
8637;BME280;4356;49.068;8.658;2023-04-26T01:37:56;100005.53;;;18.32;40.21
8637;BME280;4356;49.068;8.658;2023-04-26T01:40:22;100015.00;;;18.29;39.99
8637;BME280;4356;49.068;8.658;2023-04-26T01:42:47;100007.25;;;18.26;39.97
8637;BME280;4356;49.068;8.658;2023-04-26T01:45:13;100009.16;;;18.26;40.10
8637;BME280;4356;49.068;8.658;2023-04-26T01:47:38;100008.72;;;18.29;40.03
8637;BME280;4356;49.068;8.658;2023-04-26T01:50:05;100010.19;;;18.25;40.35
8637;BME280;4356;49.068;8.658;2023-04-26T01:52:30;100012.06;;;18.24;40.25
8637;BME280;4356;49.068;8.658;2023-04-26T01:54:56;100006.44;;;18.19;40.03
8637;BME280;4356;49.068;8.658;2023-04-26T01:57:22;100007.06;;;18.21;39.88
8637;BME280;4356;49.068;8.658;2023-04-26T01:59:47;100008.13;;;18.20;40.05
8637;BME280;4356;49.068;8.658;2023-04-26T02:02:16;99991.19;;;18.18;40.21
8637;BME280;4356;49.068;8.658;2023-04-26T02:04:41;100009.78;;;18.21;40.12
8637;BME280;4356;49.068;8.658;2023-04-26T02:07:07;100019.00;;;18.20;39.98
8637;BME280;4356;49.068;8.658;2023-04-26T02:09:35;100010.00;;;18.20;40.13
8637;BME280;4356;49.068;8.658;2023-04-26T02:12:01;100013.78;;;18.19;39.94
8637;BME280;4356;49.068;8.658;2023-04-26T02:14:27;100015.06;;;18.16;40.40
8637;BME280;4356;49.068;8.658;2023-04-26T02:16:52;100012.78;;;18.13;40.04
8637;BME280;4356;49.068;8.658;2023-04-26T02:19:18;100011.72;;;18.14;39.84
8637;BME280;4356;49.068;8.658;2023-04-26T02:21:54;100019.66;;;18.16;40.16
8637;BME280;4356;49.068;8.658;2023-04-26T02:24:24;100017.59;;;18.11;39.95
8637;BME280;4356;49.068;8.658;2023-04-26T02:26:50;100023.84;;;18.12;40.16
8637;BME280;4356;49.068;8.658;2023-04-26T02:29:17;100015.91;;;18.10;40.05
8637;BME280;4356;49.068;8.658;2023-04-26T02:31:42;100024.47;;;18.14;39.85
8637;BME280;4356;49.068;8.658;2023-04-26T02:34:08;100024.69;;;18.12;40.05
8637;BME280;4356;49.068;8.658;2023-04-26T02:36:34;100023.25;;;18.10;39.96
8637;BME280;4356;49.068;8.658;2023-04-26T02:39:00;100011.34;;;18.04;39.82
8637;BME280;4356;49.068;8.658;2023-04-26T02:41:25;100018.00;;;18.08;40.03
8637;BME280;4356;49.068;8.658;2023-04-26T02:43:51;100016.56;;;18.06;40.12
8637;BME280;4356;49.068;8.658;2023-04-26T02:46:17;100023.88;;;18.05;40.33
8637;BME280;4356;49.068;8.658;2023-04-26T02:48:43;100026.38;;;18.07;40.24
8637;BME280;4356;49.068;8.658;2023-04-26T02:51:08;100016.78;;;18.04;40.08
8637;BME280;4356;49.068;8.658;2023-04-26T02:53:34;100020.16;;;18.00;40.38
8637;BME280;4356;49.068;8.658;2023-04-26T02:56:01;100020.78;;;18.02;39.92
8637;BME280;4356;49.068;8.658;2023-04-26T02:58:27;100026.84;;;18.04;39.91
8637;BME280;4356;49.068;8.658;2023-04-26T03:00:52;100019.94;;;18.01;40.18
8637;BME280;4356;49.068;8.658;2023-04-26T03:03:21;100021.84;;;18.01;40.00
8637;BME280;4356;49.068;8.658;2023-04-26T03:05:47;100024.56;;;18.01;40.21
8637;BME280;4356;49.068;8.658;2023-04-26T03:08:12;100026.66;;;17.99;40.23
8637;BME280;4356;49.068;8.658;2023-04-26T03:10:38;100018.91;;;17.96;39.95
8637;BME280;4356;49.068;8.658;2023-04-26T03:13:04;100025.81;;;17.98;40.26
8637;BME280;4356;49.068;8.658;2023-04-26T03:15:29;100029.56;;;17.97;39.97
8637;BME280;4356;49.068;8.658;2023-04-26T03:17:55;100029.38;;;17.99;40.16
8637;BME280;4356;49.068;8.658;2023-04-26T03:20:23;100027.69;;;17.98;40.10
8637;BME280;4356;49.068;8.658;2023-04-26T03:22:48;100028.13;;;17.95;40.29
8637;BME280;4356;49.068;8.658;2023-04-26T03:25:14;100021.00;;;17.94;40.28
8637;BME280;4356;49.068;8.658;2023-04-26T03:27:40;100029.78;;;17.96;40.25
8637;BME280;4356;49.068;8.658;2023-04-26T03:30:07;100017.88;;;17.90;40.02
8637;BME280;4356;49.068;8.658;2023-04-26T03:32:33;100028.97;;;17.95;39.92
8637;BME280;4356;49.068;8.658;2023-04-26T03:34:58;100031.06;;;17.93;40.25
8637;BME280;4356;49.068;8.658;2023-04-26T03:37:25;100017.88;;;17.90;40.33
8637;BME280;4356;49.068;8.658;2023-04-26T03:39:50;100024.16;;;17.91;40.32
8637;BME280;4356;49.068;8.658;2023-04-26T03:42:19;100035.03;;;17.91;40.19
8637;BME280;4356;49.068;8.658;2023-04-26T03:44:44;100038.81;;;17.90;40.24
8637;BME280;4356;49.068;8.658;2023-04-26T03:47:10;100031.91;;;17.87;40.32
8637;BME280;4356;49.068;8.658;2023-04-26T03:49:35;100042.56;;;17.89;40.26
8637;BME280;4356;49.068;8.658;2023-04-26T03:52:01;100026.69;;;17.86;40.16
8637;BME280;4356;49.068;8.658;2023-04-26T03:54:27;100031.91;;;17.87;40.01
8637;BME280;4356;49.068;8.658;2023-04-26T03:56:53;100035.69;;;17.86;40.48
8637;BME280;4356;49.068;8.658;2023-04-26T03:59:19;100027.31;;;17.81;39.88
8637;BME280;4356;49.068;8.658;2023-04-26T04:01:44;100022.28;;;17.85;40.26
8637;BME280;4356;49.068;8.658;2023-04-26T04:04:10;100027.94;;;17.83;40.18
8637;BME280;4356;49.068;8.658;2023-04-26T04:06:35;100014.16;;;17.78;40.14
8637;BME280;4356;49.068;8.658;2023-04-26T04:09:03;100026.06;;;17.84;39.88
8637;BME280;4356;49.068;8.658;2023-04-26T04:11:30;100026.91;;;17.84;40.14
8637;BME280;4356;49.068;8.658;2023-04-26T04:13:55;100022.72;;;17.82;39.91
8637;BME280;4356;49.068;8.658;2023-04-26T04:16:21;100018.13;;;17.82;40.03
8637;BME280;4356;49.068;8.658;2023-04-26T04:18:47;100022.09;;;17.80;40.20
8637;BME280;4356;49.068;8.658;2023-04-26T04:21:12;100028.38;;;17.80;39.77
8637;BME280;4356;49.068;8.658;2023-04-26T04:23:38;100019.59;;;17.78;40.10
8637;BME280;4356;49.068;8.658;2023-04-26T04:26:03;100029.41;;;17.79;40.35
8637;BME280;4356;49.068;8.658;2023-04-26T04:28:32;100032.75;;;17.81;40.26
8637;BME280;4356;49.068;8.658;2023-04-26T04:30:58;100033.19;;;17.78;40.36
8637;BME280;4356;49.068;8.658;2023-04-26T04:33:25;100031.31;;;17.79;40.31
8637;BME280;4356;49.068;8.658;2023-04-26T04:35:53;100019.41;;;17.73;40.30
8637;BME280;4356;49.068;8.658;2023-04-26T04:38:19;100040.50;;;17.78;40.28
8637;BME280;4356;49.068;8.658;2023-04-26T04:40:47;100050.56;;;17.77;40.35
8637;BME280;4356;49.068;8.658;2023-04-26T04:43:14;100051.16;;;17.79;40.19
8637;BME280;4356;49.068;8.658;2023-04-26T04:45:41;100045.31;;;17.76;39.91
8637;BME280;4356;49.068;8.658;2023-04-26T04:48:07;100048.66;;;17.78;39.82
8637;BME280;4356;49.068;8.658;2023-04-26T04:50:33;100047.22;;;17.75;40.22
8637;BME280;4356;49.068;8.658;2023-04-26T04:53:00;100050.97;;;17.74;40.40
8637;BME280;4356;49.068;8.658;2023-04-26T04:55:26;100048.25;;;17.74;39.99
8637;BME280;4356;49.068;8.658;2023-04-26T04:57:51;100049.72;;;17.70;40.29
8637;BME280;4356;49.068;8.658;2023-04-26T05:00:17;100047.22;;;17.69;39.97
8637;BME280;4356;49.068;8.658;2023-04-26T05:02:43;100064.56;;;17.74;39.98
8637;BME280;4356;49.068;8.658;2023-04-26T05:05:09;100059.97;;;17.75;40.06
8637;BME280;4356;49.068;8.658;2023-04-26T05:07:35;100057.88;;;17.77;39.87
8637;BME280;4356;49.068;8.658;2023-04-26T05:10:02;100051.59;;;17.76;40.16
8637;BME280;4356;49.068;8.658;2023-04-26T05:12:27;100056.00;;;17.77;40.20
8637;BME280;4356;49.068;8.658;2023-04-26T05:14:53;100056.19;;;17.76;40.03
8637;BME280;4356;49.068;8.658;2023-04-26T05:17:18;100066.66;;;17.79;40.16
8637;BME280;4356;49.068;8.658;2023-04-26T05:19:44;100076.25;;;17.81;40.21
8637;BME280;4356;49.068;8.658;2023-04-26T05:22:10;100076.03;;;17.83;39.97
8637;BME280;4356;49.068;8.658;2023-04-26T05:24:37;100068.31;;;17.80;40.03
8637;BME280;4356;49.068;8.658;2023-04-26T05:27:03;100064.56;;;17.74;40.13
8637;BME280;4356;49.068;8.658;2023-04-26T05:29:29;100068.72;;;17.83;40.09
8637;BME280;4356;49.068;8.658;2023-04-26T05:31:58;100088.16;;;17.87;40.03
8637;BME280;4356;49.068;8.658;2023-04-26T05:34:23;100086.06;;;17.89;39.86
8637;BME280;4356;49.068;8.658;2023-04-26T05:36:49;100088.56;;;17.90;39.88
8637;BME280;4356;49.068;8.658;2023-04-26T05:39:16;100091.69;;;17.94;39.92
8637;BME280;4356;49.068;8.658;2023-04-26T05:41:43;100082.72;;;17.93;39.73
8637;BME280;4356;49.068;8.658;2023-04-26T05:44:09;100086.25;;;17.94;40.07
8637;BME280;4356;49.068;8.658;2023-04-26T05:46:34;100085.84;;;17.97;40.16
8637;BME280;4356;49.068;8.658;2023-04-26T05:49:00;100091.69;;;18.00;40.11
8637;BME280;4356;49.068;8.658;2023-04-26T05:51:26;100089.38;;;17.97;39.87
8637;BME280;4356;49.068;8.658;2023-04-26T05:53:56;100083.75;;;17.99;39.83
8637;BME280;4356;49.068;8.658;2023-04-26T05:56:22;100097.75;;;18.02;40.06
8637;BME280;4356;49.068;8.658;2023-04-26T05:58:49;100088.31;;;18.05;39.74
8637;BME280;4356;49.068;8.658;2023-04-26T06:01:14;100093.75;;;18.05;39.84
8637;BME280;4356;49.068;8.658;2023-04-26T06:03:40;100091.66;;;18.07;39.81
8637;BME280;4356;49.068;8.658;2023-04-26T06:06:06;100096.88;;;18.08;39.65
8637;BME280;4356;49.068;8.658;2023-04-26T06:08:32;100101.91;;;18.11;40.12
8637;BME280;4356;49.068;8.658;2023-04-26T06:10:58;100113.81;;;18.17;39.74
8637;BME280;4356;49.068;8.658;2023-04-26T06:13:24;100115.25;;;18.19;39.74
8637;BME280;4356;49.068;8.658;2023-04-26T06:15:52;100131.16;;;18.22;39.96
8637;BME280;4356;49.068;8.658;2023-04-26T06:18:18;100126.53;;;18.23;39.78
8637;BME280;4356;49.068;8.658;2023-04-26T06:20:45;100128.22;;;18.24;39.42
8637;BME280;4356;49.068;8.658;2023-04-26T06:23:11;100125.06;;;18.27;39.77
8637;BME280;4356;49.068;8.658;2023-04-26T06:25:37;100112.72;;;18.24;39.81
8637;BME280;4356;49.068;8.658;2023-04-26T06:28:06;100111.47;;;18.27;39.61
8637;BME280;4356;49.068;8.658;2023-04-26T06:30:31;100116.69;;;18.28;39.71
8637;BME280;4356;49.068;8.658;2023-04-26T06:32:57;100109.38;;;18.29;39.42
8637;BME280;4356;49.068;8.658;2023-04-26T06:35:24;100116.88;;;18.33;39.50
8637;BME280;4356;49.068;8.658;2023-04-26T06:37:50;100115.22;;;18.32;39.54
8637;BME280;4356;49.068;8.658;2023-04-26T06:40:17;100105.97;;;18.33;39.55
8637;BME280;4356;49.068;8.658;2023-04-26T06:42:42;100105.56;;;18.36;39.61
8637;BME280;4356;49.068;8.658;2023-04-26T06:45:09;100104.31;;;18.32;39.54
8637;BME280;4356;49.068;8.658;2023-04-26T06:47:34;100108.50;;;18.41;39.61
8637;BME280;4356;49.068;8.658;2023-04-26T06:50:00;100109.34;;;18.42;39.63
8637;BME280;4356;49.068;8.658;2023-04-26T06:52:26;100104.72;;;18.42;39.48
8637;BME280;4356;49.068;8.658;2023-04-26T06:54:53;100099.28;;;18.42;39.72
8637;BME280;4356;49.068;8.658;2023-04-26T06:57:19;100106.81;;;18.47;39.21
8637;BME280;4356;49.068;8.658;2023-04-26T06:59:45;100098.84;;;18.45;39.30
8637;BME280;4356;49.068;8.658;2023-04-26T07:02:11;100104.94;;;18.48;39.69
8637;BME280;4356;49.068;8.658;2023-04-26T07:04:36;100103.63;;;18.50;39.57
8637;BME280;4356;49.068;8.658;2023-04-26T07:07:02;100094.66;;;18.50;39.18
8637;BME280;4356;49.068;8.658;2023-04-26T07:09:27;100104.66;;;18.56;39.41
8637;BME280;4356;49.068;8.658;2023-04-26T07:11:53;100094.41;;;18.58;39.05
8637;BME280;4356;49.068;8.658;2023-04-26T07:14:19;100094.78;;;18.61;39.13
8637;BME280;4356;49.068;8.658;2023-04-26T07:16:45;100097.09;;;18.64;39.05
8637;BME280;4356;49.068;8.658;2023-04-26T07:19:10;100092.47;;;18.65;39.32
8637;BME280;4356;49.068;8.658;2023-04-26T07:21:36;100090.13;;;18.68;39.07
8637;BME280;4356;49.068;8.658;2023-04-26T07:24:02;100093.69;;;18.69;39.21
8637;BME280;4356;49.068;8.658;2023-04-26T07:26:28;100080.50;;;18.72;39.36
8637;BME280;4356;49.068;8.658;2023-04-26T07:28:54;100092.84;;;18.75;39.07
8637;BME280;4356;49.068;8.658;2023-04-26T07:31:20;100088.81;;;18.77;38.89
8637;BME280;4356;49.068;8.658;2023-04-26T07:33:45;100085.47;;;18.82;38.92
8637;BME280;4356;49.068;8.658;2023-04-26T07:36:11;100082.50;;;18.83;38.86
8637;BME280;4356;49.068;8.658;2023-04-26T07:38:37;100072.69;;;18.82;38.92
8637;BME280;4356;49.068;8.658;2023-04-26T07:41:02;100079.34;;;18.86;38.94
8637;BME280;4356;49.068;8.658;2023-04-26T07:43:29;100091.25;;;18.92;38.77
8637;BME280;4356;49.068;8.658;2023-04-26T07:46:01;100087.47;;;18.93;38.73
8637;BME280;4356;49.068;8.658;2023-04-26T07:48:27;100080.56;;;18.97;38.91
8637;BME280;4356;49.068;8.658;2023-04-26T07:50:53;100086.16;;;19.02;38.98
8637;BME280;4356;49.068;8.658;2023-04-26T07:53:20;100083.22;;;19.03;39.07
8637;BME280;4356;49.068;8.658;2023-04-26T07:55:46;100086.56;;;19.05;38.73
8637;BME280;4356;49.068;8.658;2023-04-26T07:58:11;100095.97;;;19.09;38.35
8637;BME280;4356;49.068;8.658;2023-04-26T08:00:40;100091.94;;;19.12;38.69
8637;BME280;4356;49.068;8.658;2023-04-26T08:03:05;100095.66;;;19.17;38.35
8637;BME280;4356;49.068;8.658;2023-04-26T08:05:32;100088.94;;;19.20;38.61
8637;BME280;4356;49.068;8.658;2023-04-26T08:07:58;100096.44;;;19.24;38.75
8637;BME280;4356;49.068;8.658;2023-04-26T08:10:25;100086.00;;;19.21;38.42
8637;BME280;4356;49.068;8.658;2023-04-26T08:12:51;100106.47;;;19.30;38.33
8637;BME280;4356;49.068;8.658;2023-04-26T08:15:17;100088.88;;;19.33;38.43
8637;BME280;4356;49.068;8.658;2023-04-26T08:17:42;100093.66;;;19.37;38.65
8637;BME280;4356;49.068;8.658;2023-04-26T08:20:09;100087.34;;;19.37;38.45
8637;BME280;4356;49.068;8.658;2023-04-26T08:22:34;100093.81;;;19.42;38.71
8637;BME280;4356;49.068;8.658;2023-04-26T08:25:00;100087.94;;;19.45;38.15
8637;BME280;4356;49.068;8.658;2023-04-26T08:27:26;100089.75;;;19.52;38.28
8637;BME280;4356;49.068;8.658;2023-04-26T08:29:53;100087.25;;;19.50;38.52
8637;BME280;4356;49.068;8.658;2023-04-26T08:32:18;100092.84;;;19.55;38.08
8637;BME280;4356;49.068;8.658;2023-04-26T08:34:44;100086.34;;;19.56;37.95
8637;BME280;4356;49.068;8.658;2023-04-26T08:37:10;100088.63;;;19.59;38.15
8637;BME280;4356;49.068;8.658;2023-04-26T08:39:36;100088.34;;;19.67;37.95
8637;BME280;4356;49.068;8.658;2023-04-26T08:42:12;100095.59;;;19.73;37.93
8637;BME280;4356;49.068;8.658;2023-04-26T08:44:42;100097.66;;;19.78;37.85
8637;BME280;4356;49.068;8.658;2023-04-26T08:47:13;100089.25;;;19.79;37.77
8637;BME280;4356;49.068;8.658;2023-04-26T08:49:44;100078.97;;;19.81;37.84
8637;BME280;4356;49.068;8.658;2023-04-26T08:52:13;100080.78;;;19.87;37.79
8637;BME280;4356;49.068;8.658;2023-04-26T08:54:40;100081.97;;;19.91;37.72
8637;BME280;4356;49.068;8.658;2023-04-26T08:57:06;100071.06;;;19.91;37.74
8637;BME280;4356;49.068;8.658;2023-04-26T08:59:35;100076.47;;;19.98;37.70
8637;BME280;4356;49.068;8.658;2023-04-26T09:02:03;100074.13;;;20.01;37.66
8637;BME280;4356;49.068;8.658;2023-04-26T09:04:29;100073.88;;;20.03;37.56
8637;BME280;4356;49.068;8.658;2023-04-26T09:06:59;100079.06;;;20.11;37.42
8637;BME280;4356;49.068;8.658;2023-04-26T09:09:26;100061.59;;;20.12;37.34
8637;BME280;4356;49.068;8.658;2023-04-26T09:11:56;100071.66;;;20.18;37.26
8637;BME280;4356;49.068;8.658;2023-04-26T09:14:24;100061.34;;;20.20;37.21
8637;BME280;4356;49.068;8.658;2023-04-26T09:16:50;100064.44;;;20.23;37.18
8637;BME280;4356;49.068;8.658;2023-04-26T09:19:16;100059.59;;;20.25;37.09
8637;BME280;4356;49.068;8.658;2023-04-26T09:21:46;100059.25;;;20.33;37.09
8637;BME280;4356;49.068;8.658;2023-04-26T09:24:12;100064.72;;;20.33;37.11
8637;BME280;4356;49.068;8.658;2023-04-26T09:26:38;100068.44;;;20.39;37.14
8637;BME280;4356;49.068;8.658;2023-04-26T09:29:18;100077.59;;;20.44;36.86
8637;BME280;4356;49.068;8.658;2023-04-26T09:31:47;100065.16;;;20.48;36.84
8637;BME280;4356;49.068;8.658;2023-04-26T09:34:14;100058.63;;;20.49;36.81
8637;BME280;4356;49.068;8.658;2023-04-26T09:37:09;100060.66;;;20.54;36.72
8637;BME280;4356;49.068;8.658;2023-04-26T09:39:41;100053.75;;;20.52;36.58
8637;BME280;4356;49.068;8.658;2023-04-26T09:42:10;100060.81;;;20.59;36.54
8637;BME280;4356;49.068;8.658;2023-04-26T09:44:36;100052.97;;;20.63;36.77
8637;BME280;4356;49.068;8.658;2023-04-26T09:47:03;100058.81;;;20.66;36.62
8637;BME280;4356;49.068;8.658;2023-04-26T09:49:52;100061.31;;;20.68;36.53
8637;BME280;4356;49.068;8.658;2023-04-26T09:52:18;100059.78;;;20.72;36.60
8637;BME280;4356;49.068;8.658;2023-04-26T09:57:15;100057.16;;;20.77;36.50
8637;BME280;4356;49.068;8.658;2023-04-26T09:59:42;100058.38;;;20.81;36.33
8637;BME280;4356;49.068;8.658;2023-04-26T10:02:13;100055.03;;;20.79;36.33
8637;BME280;4356;49.068;8.658;2023-04-26T10:04:42;100055.66;;;20.81;36.38
8637;BME280;4356;49.068;8.658;2023-04-26T10:07:08;100053.28;;;20.84;36.42
8637;BME280;4356;49.068;8.658;2023-04-26T10:09:34;100058.06;;;20.89;36.24
8637;BME280;4356;49.068;8.658;2023-04-26T10:12:00;100063.88;;;20.92;36.22
8637;BME280;4356;49.068;8.658;2023-04-26T10:14:28;100057.09;;;20.95;36.31
8637;BME280;4356;49.068;8.658;2023-04-26T10:16:54;100045.38;;;20.94;36.20
8637;BME280;4356;49.068;8.658;2023-04-26T10:19:21;100029.66;;;20.90;36.29
8637;BME280;4356;49.068;8.658;2023-04-26T10:21:48;100024.31;;;20.95;36.05
8637;BME280;4356;49.068;8.658;2023-04-26T10:24:16;100038.88;;;21.07;36.00
8637;BME280;4356;49.068;8.658;2023-04-26T10:29:18;100013.94;;;21.03;36.18
8637;BME280;4356;49.068;8.658;2023-04-26T10:34:33;100027.94;;;21.18;36.00
8637;BME280;4356;49.068;8.658;2023-04-26T10:37:13;100034.00;;;21.20;35.60
8637;BME280;4356;49.068;8.658;2023-04-26T10:39:41;100027.94;;;21.18;35.86
8637;BME280;4356;49.068;8.658;2023-04-26T10:42:24;100019.06;;;21.23;35.65
8637;BME280;4356;49.068;8.658;2023-04-26T10:44:58;100025.47;;;21.28;35.34
8637;BME280;4356;49.068;8.658;2023-04-26T10:47:30;100025.84;;;21.32;35.66
8637;BME280;4356;49.068;8.658;2023-04-26T10:52:26;100026.78;;;21.37;35.80
8637;BME280;4356;49.068;8.658;2023-04-26T10:54:56;100022.47;;;21.41;35.67
8637;BME280;4356;49.068;8.658;2023-04-26T10:57:46;100020.13;;;21.45;35.56
8637;BME280;4356;49.068;8.658;2023-04-26T11:00:24;100017.75;;;21.48;35.70
8637;BME280;4356;49.068;8.658;2023-04-26T11:02:55;100016.41;;;21.51;35.55
8637;BME280;4356;49.068;8.658;2023-04-26T11:05:46;100009.66;;;21.54;35.45
8637;BME280;4356;49.068;8.658;2023-04-26T11:08:28;100006.44;;;21.57;35.58
8637;BME280;4356;49.068;8.658;2023-04-26T11:10:57;100006.78;;;21.60;35.52
8637;BME280;4356;49.068;8.658;2023-04-26T11:13:23;99988.13;;;21.57;35.58
8637;BME280;4356;49.068;8.658;2023-04-26T11:16:12;99998.69;;;21.65;35.43
8637;BME280;4356;49.068;8.658;2023-04-26T11:18:40;99989.41;;;21.66;35.48
8637;BME280;4356;49.068;8.658;2023-04-26T11:21:07;99999.63;;;21.71;35.25
8637;BME280;4356;49.068;8.658;2023-04-26T11:23:33;99986.78;;;21.71;35.38
8637;BME280;4356;49.068;8.658;2023-04-26T11:26:01;99973.72;;;21.73;35.35
8637;BME280;4356;49.068;8.658;2023-04-26T11:28:28;99972.16;;;21.77;35.32
8637;BME280;4356;49.068;8.658;2023-04-26T11:30:54;99967.06;;;21.81;35.43
8637;BME280;4356;49.068;8.658;2023-04-26T11:33:20;99965.28;;;21.86;35.35
8637;BME280;4356;49.068;8.658;2023-04-26T11:35:50;99968.34;;;21.90;35.51
8637;BME280;4356;49.068;8.658;2023-04-26T11:38:17;99963.13;;;21.88;35.28
8637;BME280;4356;49.068;8.658;2023-04-26T11:40:55;99961.31;;;21.94;35.03
8637;BME280;4356;49.068;8.658;2023-04-26T11:43:21;99958.09;;;21.97;35.23
8637;BME280;4356;49.068;8.658;2023-04-26T11:45:47;99953.94;;;21.94;35.37
8637;BME280;4356;49.068;8.658;2023-04-26T11:48:13;99955.94;;;21.99;35.40
8637;BME280;4356;49.068;8.658;2023-04-26T11:50:39;99952.13;;;22.00;35.10
8637;BME280;4356;49.068;8.658;2023-04-26T11:53:07;99952.72;;;22.02;34.93
8637;BME280;4356;49.068;8.658;2023-04-26T11:55:34;99949.72;;;22.03;34.94
8637;BME280;4356;49.068;8.658;2023-04-26T11:58:01;99967.91;;;22.09;35.08
8637;BME280;4356;49.068;8.658;2023-04-26T12:00:33;99958.88;;;22.09;35.07
8637;BME280;4356;49.068;8.658;2023-04-26T12:03:04;99952.34;;;22.10;34.95
8637;BME280;4356;49.068;8.658;2023-04-26T12:05:35;99959.00;;;22.14;34.81
8637;BME280;4356;49.068;8.658;2023-04-26T12:08:01;99966.22;;;22.20;34.93
8637;BME280;4356;49.068;8.658;2023-04-26T12:10:34;99950.88;;;22.19;34.75
8637;BME280;4356;49.068;8.658;2023-04-26T12:13:00;99955.00;;;22.21;34.75
8637;BME280;4356;49.068;8.658;2023-04-26T12:15:30;99958.09;;;22.25;34.84
8637;BME280;4356;49.068;8.658;2023-04-26T12:18:14;99952.13;;;22.28;34.68
8637;BME280;4356;49.068;8.658;2023-04-26T12:20:41;99949.41;;;22.28;34.50
8637;BME280;4356;49.068;8.658;2023-04-26T12:23:09;99941.78;;;22.30;34.47
8637;BME280;4356;49.068;8.658;2023-04-26T12:25:36;99941.03;;;22.34;34.31
8637;BME280;4356;49.068;8.658;2023-04-26T12:28:08;99952.56;;;22.36;34.69
8637;BME280;4356;49.068;8.658;2023-04-26T12:30:37;99955.88;;;22.38;34.49
8637;BME280;4356;49.068;8.658;2023-04-26T12:33:04;99947.69;;;22.38;34.44
8637;BME280;4356;49.068;8.658;2023-04-26T12:35:31;99943.97;;;22.44;34.53
8637;BME280;4356;49.068;8.658;2023-04-26T12:37:57;99938.97;;;22.41;34.41
8637;BME280;4356;49.068;8.658;2023-04-26T12:40:26;99945.09;;;22.48;34.51
8637;BME280;4356;49.068;8.658;2023-04-26T12:42:52;99944.63;;;22.52;34.29
8637;BME280;4356;49.068;8.658;2023-04-26T12:45:21;99943.28;;;22.54;34.25
8637;BME280;4356;49.068;8.658;2023-04-26T12:47:47;99929.84;;;22.52;34.44
8637;BME280;4356;49.068;8.658;2023-04-26T12:50:13;99922.22;;;22.55;34.46
8637;BME280;4356;49.068;8.658;2023-04-26T12:52:39;99930.53;;;22.60;34.05
8637;BME280;4356;49.068;8.658;2023-04-26T12:55:06;99939.94;;;22.64;34.07
8637;BME280;4356;49.068;8.658;2023-04-26T12:57:33;99936.59;;;22.62;34.00
8637;BME280;4356;49.068;8.658;2023-04-26T13:00:00;99938.03;;;22.64;33.96
8637;BME280;4356;49.068;8.658;2023-04-26T13:02:26;99943.84;;;22.68;33.99
8637;BME280;4356;49.068;8.658;2023-04-26T13:04:51;99941.44;;;22.71;34.06
8637;BME280;4356;49.068;8.658;2023-04-26T13:07:17;99939.53;;;22.72;33.82
8637;BME280;4356;49.068;8.658;2023-04-26T13:09:43;99943.66;;;22.74;34.16
8637;BME280;4356;49.068;8.658;2023-04-26T13:12:09;99936.88;;;22.77;33.77
8637;BME280;4356;49.068;8.658;2023-04-26T13:14:35;99929.50;;;22.77;33.95
8637;BME280;4356;49.068;8.658;2023-04-26T13:17:00;99922.59;;;22.75;33.66
8637;BME280;4356;49.068;8.658;2023-04-26T13:19:26;99932.56;;;22.81;33.70
8637;BME280;4356;49.068;8.658;2023-04-26T13:21:52;99935.97;;;22.88;33.86